If you wish to contribute or participate in the discussions about articles you are invited to join SKYbrary as a registered user

 Actions

Getafe Air Base

From SKYbrary Wiki

LEGT
Airport
ICAO: LEGT
Summary
Name Getafe Air Base
Region Europe
Territory Spain ES.gif
Location
Serving Madrid
Elevation 619.049 m <br />2,031 ft <br />2,031 ft619.049 m <br />
Type medium airport
Coordinates 40° 17' 38.90" N, 3° 43' 25.80" W
Runways
Designator Length Width Surface ROPS
5/23 2480 m8,136.483 ft <br /> 60 m196.85 ft <br /> ASP /
05R/23L 920 m3,018.373 ft <br /> 30 m98.425 ft <br /> GRE /


METAR
Observation LEGT 130830Z 07006KT 010V150 CAVOK 25/11 Q1023
Station Madrid / Getafe
Date/Time 13 June 2021 08:30:00
Wind direction 70°
Wind speed 06 kts
Lowest cloud amount clouds and visibility OK
Temperature 25°C
Dew point 11°C
Humidity 41%
QNH 1023 hPa
Weather condition n/a